sensor_id;sensor_type;location;lat;lon;timestamp;pressure;altitude;pressure_sealevel;temperature;humidity
66164;BME280;52962;51.088;3.096;2022-09-17T00:01:22;101452.53;;;13.07;100.00
66164;BME280;52962;51.088;3.096;2022-09-17T00:03:56;101443.75;;;13.08;100.00
66164;BME280;52962;51.088;3.096;2022-09-17T00:06:25;101458.53;;;12.99;100.00
66164;BME280;52962;51.088;3.096;2022-09-17T00:08:54;101454.31;;;13.08;100.00
66164;BME280;52962;51.088;3.096;2022-09-17T00:11:23;101456.13;;;13.09;100.00
66164;BME280;52962;51.088;3.096;2022-09-17T00:13:53;101447.22;;;13.06;100.00
66164;BME280;52962;51.088;3.096;2022-09-17T00:16:24;101455.16;;;13.06;100.00
66164;BME280;52962;51.088;3.096;2022-09-17T00:18:52;101454.25;;;13.04;100.00
66164;BME280;52962;51.088;3.096;2022-09-17T00:21:23;101461.81;;;12.87;100.00
66164;BME280;52962;51.088;3.096;2022-09-17T00:23:54;101463.75;;;12.96;100.00
66164;BME280;52962;51.088;3.096;2022-09-17T00:26:22;101466.34;;;12.93;100.00
66164;BME280;52962;51.088;3.096;2022-09-17T00:28:51;101461.94;;;12.93;100.00
66164;BME280;52962;51.088;3.096;2022-09-17T00:31:19;101458.22;;;12.84;100.00
66164;BME280;52962;51.088;3.096;2022-09-17T00:33:47;101465.25;;;12.83;100.00
66164;BME280;52962;51.088;3.096;2022-09-17T00:36:16;101466.94;;;12.80;100.00
66164;BME280;52962;51.088;3.096;2022-09-17T00:38:48;101462.41;;;12.74;100.00
66164;BME280;52962;51.088;3.096;2022-09-17T00:41:17;101469.28;;;12.66;100.00
66164;BME280;52962;51.088;3.096;2022-09-17T00:43:49;101460.38;;;12.61;100.00
66164;BME280;52962;51.088;3.096;2022-09-17T00:46:30;101461.78;;;12.43;100.00
66164;BME280;52962;51.088;3.096;2022-09-17T00:49:02;101467.22;;;12.53;100.00
66164;BME280;52962;51.088;3.096;2022-09-17T00:51:34;101459.13;;;12.43;100.00
66164;BME280;52962;51.088;3.096;2022-09-17T00:54:06;101466.09;;;12.40;100.00
66164;BME280;52962;51.088;3.096;2022-09-17T00:56:36;101457.22;;;12.36;100.00
66164;BME280;52962;51.088;3.096;2022-09-17T00:59:05;101462.34;;;12.30;100.00
66164;BME280;52962;51.088;3.096;2022-09-17T01:01:34;101460.59;;;12.31;100.00
66164;BME280;52962;51.088;3.096;2022-09-17T01:04:04;101457.06;;;12.30;100.00
66164;BME280;52962;51.088;3.096;2022-09-17T01:06:36;101464.72;;;12.18;100.00
66164;BME280;52962;51.088;3.096;2022-09-17T01:09:21;101464.84;;;12.24;100.00
66164;BME280;52962;51.088;3.096;2022-09-17T01:12:16;101458.78;;;12.28;100.00
66164;BME280;52962;51.088;3.096;2022-09-17T01:14:56;101464.22;;;12.34;100.00
66164;BME280;52962;51.088;3.096;2022-09-17T01:17:31;101463.56;;;12.44;100.00
66164;BME280;52962;51.088;3.096;2022-09-17T01:20:34;101466.38;;;12.54;100.00
66164;BME280;52962;51.088;3.096;2022-09-17T01:23:24;101463.88;;;12.60;100.00
66164;BME280;52962;51.088;3.096;2022-09-17T01:26:14;101459.72;;;12.71;100.00
66164;BME280;52962;51.088;3.096;2022-09-17T01:28:52;101459.09;;;12.83;100.00
66164;BME280;52962;51.088;3.096;2022-09-17T01:31:36;101467.97;;;12.86;100.00
66164;BME280;52962;51.088;3.096;2022-09-17T01:34:13;101462.56;;;12.80;100.00
66164;BME280;52962;51.088;3.096;2022-09-17T01:36:51;101470.75;;;12.92;100.00
66164;BME280;52962;51.088;3.096;2022-09-17T01:39:29;101467.97;;;12.86;100.00
66164;BME280;52962;51.088;3.096;2022-09-17T01:42:06;101493.53;;;12.87;100.00
66164;BME280;52962;51.088;3.096;2022-09-17T01:44:41;101481.81;;;12.74;100.00
66164;BME280;52962;51.088;3.096;2022-09-17T01:47:17;101470.22;;;12.68;100.00
66164;BME280;52962;51.088;3.096;2022-09-17T01:49:48;101486.06;;;12.68;100.00
66164;BME280;52962;51.088;3.096;2022-09-17T01:52:18;101475.22;;;12.56;100.00
66164;BME280;52962;51.088;3.096;2022-09-17T01:54:50;101486.56;;;12.50;100.00
66164;BME280;52962;51.088;3.096;2022-09-17T01:57:25;101488.25;;;12.48;100.00
66164;BME280;52962;51.088;3.096;2022-09-17T01:59:58;101484.75;;;12.48;100.00
66164;BME280;52962;51.088;3.096;2022-09-17T02:02:33;101483.16;;;12.56;100.00
66164;BME280;52962;51.088;3.096;2022-09-17T02:05:05;101489.56;;;12.67;100.00
66164;BME280;52962;51.088;3.096;2022-09-17T02:07:39;101488.94;;;12.78;100.00
66164;BME280;52962;51.088;3.096;2022-09-17T02:10:11;101486.41;;;12.83;100.00
66164;BME280;52962;51.088;3.096;2022-09-17T02:12:42;101482.09;;;12.88;100.00
66164;BME280;52962;51.088;3.096;2022-09-17T02:15:15;101485.75;;;12.93;100.00
66164;BME280;52962;51.088;3.096;2022-09-17T02:17:48;101482.25;;;12.94;100.00
66164;BME280;52962;51.088;3.096;2022-09-17T02:20:25;101476.94;;;12.94;100.00
66164;BME280;52962;51.088;3.096;2022-09-17T02:22:59;101489.97;;;12.85;100.00
66164;BME280;52962;51.088;3.096;2022-09-17T02:25:33;101474.97;;;12.84;100.00
66164;BME280;52962;51.088;3.096;2022-09-17T02:28:09;101478.47;;;12.83;100.00
66164;BME280;52962;51.088;3.096;2022-09-17T02:30:38;101468.88;;;12.88;100.00
66164;BME280;52962;51.088;3.096;2022-09-17T02:33:08;101468.94;;;12.90;100.00
66164;BME280;52962;51.088;3.096;2022-09-17T02:35:39;101480.31;;;12.87;100.00
66164;BME280;52962;51.088;3.096;2022-09-17T02:38:06;101476.94;;;12.94;100.00
66164;BME280;52962;51.088;3.096;2022-09-17T02:40:36;101476.25;;;13.03;100.00
66164;BME280;52962;51.088;3.096;2022-09-17T02:43:13;101481.63;;;13.07;100.00
66164;BME280;52962;51.088;3.096;2022-09-17T02:45:53;101484.34;;;13.10;100.00
66164;BME280;52962;51.088;3.096;2022-09-17T02:48:46;101494.09;;;13.13;100.00
66164;BME280;52962;51.088;3.096;2022-09-17T02:51:25;101486.28;;;13.18;100.00
66164;BME280;52962;51.088;3.096;2022-09-17T02:54:02;101490.63;;;13.16;100.00
66164;BME280;52962;51.088;3.096;2022-09-17T02:56:39;101484.50;;;13.17;100.00
66164;BME280;52962;51.088;3.096;2022-09-17T02:59:15;101486.28;;;13.18;100.00
66164;BME280;52962;51.088;3.096;2022-09-17T03:01:49;101486.34;;;13.21;100.00
66164;BME280;52962;51.088;3.096;2022-09-17T03:04:21;101478.38;;;13.19;100.00
66164;BME280;52962;51.088;3.096;2022-09-17T03:06:52;101475.53;;;13.12;100.00
66164;BME280;52962;51.088;3.096;2022-09-17T03:09:20;101484.34;;;13.10;100.00
66164;BME280;52962;51.088;3.096;2022-09-17T03:11:48;101478.06;;;13.05;100.00
66164;BME280;52962;51.088;3.096;2022-09-17T03:14:15;101481.59;;;13.06;100.00
66164;BME280;52962;51.088;3.096;2022-09-17T03:16:46;101484.22;;;13.04;100.00
66164;BME280;52962;51.088;3.096;2022-09-17T03:19:14;101480.72;;;13.05;100.00
66164;BME280;52962;51.088;3.096;2022-09-17T03:21:43;101482.47;;;13.05;100.00
66164;BME280;52962;51.088;3.096;2022-09-17T03:24:11;101480.00;;;13.14;100.00
66164;BME280;52962;51.088;3.096;2022-09-17T03:26:39;101475.69;;;13.18;100.00
66164;BME280;52962;51.088;3.096;2022-09-17T03:29:07;101471.41;;;13.24;100.00
66164;BME280;52962;51.088;3.096;2022-09-17T03:31:35;101466.16;;;13.26;100.00
66164;BME280;52962;51.088;3.096;2022-09-17T03:34:03;101463.41;;;13.20;100.00
66164;BME280;52962;51.088;3.096;2022-09-17T03:36:30;101471.50;;;13.29;100.00
66164;BME280;52962;51.088;3.096;2022-09-17T03:39:00;101492.81;;;13.36;100.00
66164;BME280;52962;51.088;3.096;2022-09-17T03:41:28;101487.38;;;13.29;100.00
66164;BME280;52962;51.088;3.096;2022-09-17T03:43:55;101486.28;;;13.18;100.00
66164;BME280;52962;51.088;3.096;2022-09-17T03:46:23;101499.81;;;12.92;100.00
66164;BME280;52962;51.088;3.096;2022-09-17T03:48:52;101487.88;;;12.70;100.00
66164;BME280;52962;51.088;3.096;2022-09-17T03:51:19;101508.06;;;12.67;100.00
66164;BME280;52962;51.088;3.096;2022-09-17T03:53:47;101506.03;;;12.55;100.00
66164;BME280;52962;51.088;3.096;2022-09-17T03:56:17;101494.50;;;12.52;100.00
66164;BME280;52962;51.088;3.096;2022-09-17T03:58:45;101505.00;;;12.47;100.00
66164;BME280;52962;51.088;3.096;2022-09-17T04:01:13;101490.09;;;12.51;100.00
66164;BME280;52962;51.088;3.096;2022-09-17T04:03:41;101490.97;;;12.51;100.00
66164;BME280;52962;51.088;3.096;2022-09-17T04:06:10;101497.31;;;12.59;100.00
66164;BME280;52962;51.088;3.096;2022-09-17T04:08:38;101516.69;;;12.58;100.00
66164;BME280;52962;51.088;3.096;2022-09-17T04:11:06;101516.47;;;12.48;100.00
66164;BME280;52962;51.088;3.096;2022-09-17T04:13:35;101513.69;;;12.41;100.00
66164;BME280;52962;51.088;3.096;2022-09-17T04:16:03;101518.97;;;12.41;100.00
66164;BME280;52962;51.088;3.096;2022-09-17T04:18:31;101523.44;;;12.44;100.00
66164;BME280;52962;51.088;3.096;2022-09-17T04:20:59;101515.44;;;12.41;100.00
66164;BME280;52962;51.088;3.096;2022-09-17T04:23:27;101494.34;;;12.42;100.00
66164;BME280;52962;51.088;3.096;2022-09-17T04:25:54;101504.09;;;12.45;100.00
66164;BME280;52962;51.088;3.096;2022-09-17T04:28:22;101504.13;;;12.47;100.00
66164;BME280;52962;51.088;3.096;2022-09-17T04:30:51;101500.72;;;12.54;100.00
66164;BME280;52962;51.088;3.096;2022-09-17T04:33:20;101493.69;;;12.54;100.00
66164;BME280;52962;51.088;3.096;2022-09-17T04:35:47;101494.50;;;12.52;100.00
66164;BME280;52962;51.088;3.096;2022-09-17T04:38:15;101502.50;;;12.55;100.00
66164;BME280;52962;51.088;3.096;2022-09-17T04:40:46;101502.66;;;12.61;100.00
66164;BME280;52962;51.088;3.096;2022-09-17T04:43:14;101490.38;;;12.63;100.00
66164;BME280;52962;51.088;3.096;2022-09-17T04:45:45;101505.44;;;12.67;100.00
66164;BME280;52962;51.088;3.096;2022-09-17T04:48:15;101499.31;;;12.69;100.00
66164;BME280;52962;51.088;3.096;2022-09-17T04:50:43;101504.59;;;12.69;100.00
66164;BME280;52962;51.088;3.096;2022-09-17T04:53:11;101504.59;;;12.69;100.00
66164;BME280;52962;51.088;3.096;2022-09-17T04:55:39;101501.00;;;12.66;100.00
66164;BME280;52962;51.088;3.096;2022-09-17T04:58:07;101503.72;;;12.69;100.00
66164;BME280;52962;51.088;3.096;2022-09-17T05:00:35;101509.91;;;12.71;100.00
66164;BME280;52962;51.088;3.096;2022-09-17T05:03:03;101502.84;;;12.70;100.00
66164;BME280;52962;51.088;3.096;2022-09-17T05:05:33;101507.25;;;12.69;100.00
66164;BME280;52962;51.088;3.096;2022-09-17T05:08:01;101501.97;;;12.69;100.00
66164;BME280;52962;51.088;3.096;2022-09-17T05:10:29;101503.59;;;12.64;100.00
66164;BME280;52962;51.088;3.096;2022-09-17T05:12:57;101507.09;;;12.63;100.00
66164;BME280;52962;51.088;3.096;2022-09-17T05:15:25;101508.09;;;12.68;100.00
66164;BME280;52962;51.088;3.096;2022-09-17T05:17:54;101507.38;;;12.75;100.00
66164;BME280;52962;51.088;3.096;2022-09-17T05:20:22;101518.72;;;12.70;100.00
66164;BME280;52962;51.088;3.096;2022-09-17T05:22:51;101518.91;;;12.79;100.00
66164;BME280;52962;51.088;3.096;2022-09-17T05:25:20;101519.75;;;12.76;100.00
66164;BME280;52962;51.088;3.096;2022-09-17T05:27:50;101516.44;;;12.87;100.00
66164;BME280;52962;51.088;3.096;2022-09-17T05:30:18;101525.22;;;12.86;100.00
66164;BME280;52962;51.088;3.096;2022-09-17T05:32:46;101524.53;;;12.94;100.00
66164;BME280;52962;51.088;3.096;2022-09-17T05:35:15;101524.47;;;12.91;100.00
66164;BME280;52962;51.088;3.096;2022-09-17T05:37:43;101534.19;;;12.92;100.00
66164;BME280;52962;51.088;3.096;2022-09-17T05:40:12;101528.03;;;12.93;100.00
66164;BME280;52962;51.088;3.096;2022-09-17T05:42:40;101523.69;;;12.95;100.00
66164;BME280;52962;51.088;3.096;2022-09-17T05:45:08;101521.16;;;13.01;100.00
66164;BME280;52962;51.088;3.096;2022-09-17T05:47:36;101531.81;;;13.04;100.00
66164;BME280;52962;51.088;3.096;2022-09-17T05:50:04;101531.84;;;13.06;100.00
66164;BME280;52962;51.088;3.096;2022-09-17T05:52:32;101552.09;;;13.05;100.00
66164;BME280;52962;51.088;3.096;2022-09-17T05:55:00;101546.72;;;13.01;100.00
66164;BME280;52962;51.088;3.096;2022-09-17T05:57:30;101536.84;;;12.92;100.00
66164;BME280;52962;51.088;3.096;2022-09-17T05:59:58;101535.03;;;12.91;100.00
66164;BME280;52962;51.088;3.096;2022-09-17T06:02:25;101538.63;;;12.93;100.00
66164;BME280;52962;51.088;3.096;2022-09-17T06:04:53;101535.84;;;12.87;100.00
66164;BME280;52962;51.088;3.096;2022-09-17T06:07:21;101541.25;;;12.93;100.00
66164;BME280;52962;51.088;3.096;2022-09-17T06:09:49;101545.69;;;12.94;100.00
66164;BME280;52962;51.088;3.096;2022-09-17T06:12:17;101545.88;;;13.03;100.00
66164;BME280;52962;51.088;3.096;2022-09-17T06:14:46;101550.44;;;13.10;100.00
66164;BME280;52962;51.088;3.096;2022-09-17T06:17:14;101547.91;;;13.15;100.00
66164;BME280;52962;51.088;3.096;2022-09-17T06:19:47;101554.09;;;13.16;100.00
66164;BME280;52962;51.088;3.096;2022-09-17T06:22:17;101556.78;;;13.17;100.00
66164;BME280;52962;51.088;3.096;2022-09-17T06:24:45;101554.22;;;13.20;100.00
66164;BME280;52962;51.088;3.096;2022-09-17T06:27:13;101555.09;;;13.21;100.00
66164;BME280;52962;51.088;3.096;2022-09-17T06:29:41;101563.00;;;13.19;100.00
66164;BME280;52962;51.088;3.096;2022-09-17T06:32:10;101560.88;;;13.04;100.00
66164;BME280;52962;51.088;3.096;2022-09-17T06:34:41;101551.31;;;13.09;100.00
66164;BME280;52962;51.088;3.096;2022-09-17T06:37:09;101559.28;;;13.11;100.00
66164;BME280;52962;51.088;3.096;2022-09-17T06:39:37;101556.41;;;13.00;100.00
66164;BME280;52962;51.088;3.096;2022-09-17T06:42:05;101552.63;;;12.89;100.00
66164;BME280;52962;51.088;3.096;2022-09-17T06:44:33;101558.94;;;12.96;100.00
66164;BME280;52962;51.088;3.096;2022-09-17T06:47:01;101557.25;;;12.99;100.00
66164;BME280;52962;51.088;3.096;2022-09-17T06:49:30;101559.03;;;13.00;100.00
66164;BME280;52962;51.088;3.096;2022-09-17T06:51:58;101566.03;;;12.98;100.00
66164;BME280;52962;51.088;3.096;2022-09-17T06:54:26;101567.03;;;13.03;100.00
66164;BME280;52962;51.088;3.096;2022-09-17T06:56:54;101561.75;;;13.03;100.00
66164;BME280;52962;51.088;3.096;2022-09-17T06:59:22;101562.75;;;13.08;100.00
66164;BME280;52962;51.088;3.096;2022-09-17T07:01:50;101558.56;;;13.18;100.00
66164;BME280;52962;51.088;3.096;2022-09-17T07:04:18;101558.44;;;13.14;100.00
66164;BME280;52962;51.088;3.096;2022-09-17T07:06:47;101551.44;;;13.16;100.00
66164;BME280;52962;51.088;3.096;2022-09-17T07:09:15;101556.72;;;13.16;100.00
66164;BME280;52962;51.088;3.096;2022-09-17T07:11:43;101552.28;;;13.15;100.00
66164;BME280;52962;51.088;3.096;2022-09-17T07:14:11;101557.75;;;13.21;100.00
66164;BME280;52962;51.088;3.096;2022-09-17T07:16:40;101564.50;;;13.49;100.00
66164;BME280;52962;51.088;3.096;2022-09-17T07:19:10;101564.66;;;13.58;100.00
66164;BME280;52962;51.088;3.096;2022-09-17T07:21:40;101565.16;;;13.84;100.00
66164;BME280;52962;51.088;3.096;2022-09-17T07:24:09;101562.56;;;13.87;100.00
66164;BME280;52962;51.088;3.096;2022-09-17T07:26:37;101559.06;;;13.89;100.00
66164;BME280;52962;51.088;3.096;2022-09-17T07:29:05;101562.78;;;13.99;100.00
66164;BME280;52962;51.088;3.096;2022-09-17T07:31:33;101546.09;;;14.03;100.00
66164;BME280;52962;51.088;3.096;2022-09-17T07:34:01;101556.63;;;14.00;100.00
66164;BME280;52962;51.088;3.096;2022-09-17T07:36:29;101555.72;;;13.99;100.00
66164;BME280;52962;51.088;3.096;2022-09-17T07:38:57;101572.50;;;14.00;100.00
66164;BME280;52962;51.088;3.096;2022-09-17T07:41:26;101562.19;;;14.15;100.00
66164;BME280;52962;51.088;3.096;2022-09-17T07:43:54;101565.97;;;14.29;100.00
66164;BME280;52962;51.088;3.096;2022-09-17T07:46:22;101557.38;;;14.43;100.00
66164;BME280;52962;51.088;3.096;2022-09-17T07:48:50;101552.28;;;14.55;100.00
66164;BME280;52962;51.088;3.096;2022-09-17T07:51:18;101550.69;;;14.69;100.00
66164;BME280;52962;51.088;3.096;2022-09-17T07:53:46;101547.44;;;14.88;100.00
66164;BME280;52962;51.088;3.096;2022-09-17T07:56:15;101551.31;;;15.15;100.00
66164;BME280;52962;51.088;3.096;2022-09-17T07:58:45;101549.63;;;15.20;100.00
66164;BME280;52962;51.088;3.096;2022-09-17T08:01:14;101551.56;;;15.33;100.00
66164;BME280;52962;51.088;3.096;2022-09-17T08:03:47;101558.66;;;15.34;100.00
66164;BME280;52962;51.088;3.096;2022-09-17T08:06:17;101552.34;;;15.26;100.00
66164;BME280;52962;51.088;3.096;2022-09-17T08:08:46;101560.34;;;15.27;100.00
66164;BME280;52962;51.088;3.096;2022-09-17T08:11:16;101563.88;;;15.28;100.00
66164;BME280;52962;51.088;3.096;2022-09-17T08:14:09;101563.78;;;15.20;100.00
66164;BME280;52962;51.088;3.096;2022-09-17T08:16:37;101560.31;;;15.26;100.00
66164;BME280;52962;51.088;3.096;2022-09-17T08:19:06;101555.19;;;15.40;100.00
66164;BME280;52962;51.088;3.096;2022-09-17T08:21:36;101561.50;;;15.49;100.00
66164;BME280;52962;51.088;3.096;2022-09-17T08:24:04;101554.53;;;15.57;100.00
66164;BME280;52962;51.088;3.096;2022-09-17T08:26:32;101556.38;;;15.67;100.00
66164;BME280;52962;51.088;3.096;2022-09-17T08:29:01;101562.75;;;15.83;100.00
66164;BME280;52962;51.088;3.096;2022-09-17T08:31:31;101564.66;;;15.95;100.00
66164;BME280;52962;51.088;3.096;2022-09-17T08:33:59;101565.66;;;16.08;100.00
66164;BME280;52962;51.088;3.096;2022-09-17T08:36:26;101557.63;;;16.03;100.00
66164;BME280;52962;51.088;3.096;2022-09-17T08:38:55;101570.03;;;16.04;100.00
66164;BME280;52962;51.088;3.096;2022-09-17T08:41:30;101582.28;;;15.87;100.00
66164;BME280;52962;51.088;3.096;2022-09-17T08:44:13;101579.41;;;15.68;100.00
66164;BME280;52962;51.088;3.096;2022-09-17T08:46:46;101580.22;;;15.58;100.00
66164;BME280;52962;51.088;3.096;2022-09-17T08:49:23;101583.81;;;15.66;100.00
66164;BME280;52962;51.088;3.096;2022-09-17T08:52:03;101583.75;;;15.57;100.00
66164;BME280;52962;51.088;3.096;2022-09-17T08:54:40;101589.19;;;15.73;100.00
66164;BME280;52962;51.088;3.096;2022-09-17T08:57:13;101590.00;;;15.65;100.00
66164;BME280;52962;51.088;3.096;2022-09-17T08:59:48;101583.75;;;15.57;100.00
66164;BME280;52962;51.088;3.096;2022-09-17T09:02:35;101581.34;;;15.83;100.00
66164;BME280;52962;51.088;3.096;2022-09-17T09:05:10;101573.69;;;16.15;100.00
66164;BME280;52962;51.088;3.096;2022-09-17T09:07:44;101594.16;;;16.24;100.00
66164;BME280;52962;51.088;3.096;2022-09-17T09:10:18;101577.41;;;16.32;100.00
66164;BME280;52962;51.088;3.096;2022-09-17T09:12:50;101600.59;;;16.52;100.00
66164;BME280;52962;51.088;3.096;2022-09-17T09:15:26;101594.38;;;16.50;100.00
66164;BME280;52962;51.088;3.096;2022-09-17T09:17:58;101610.50;;;16.70;100.00
66164;BME280;52962;51.088;3.096;2022-09-17T09:20:34;101607.59;;;16.42;100.00
66164;BME280;52962;51.088;3.096;2022-09-17T09:23:13;101623.88;;;15.86;100.00
66164;BME280;52962;51.088;3.096;2022-09-17T09:25:51;101616.81;;;15.88;100.00
66164;BME280;52962;51.088;3.096;2022-09-17T09:28:36;101622.03;;;15.79;100.00
66164;BME280;52962;51.088;3.096;2022-09-17T09:31:17;101623.03;;;15.89;100.00
66164;BME280;52962;51.088;3.096;2022-09-17T09:33:52;101628.63;;;16.16;100.00
66164;BME280;52962;51.088;3.096;2022-09-17T09:36:22;101626.09;;;16.28;100.00
66164;BME280;52962;51.088;3.096;2022-09-17T09:38:53;101630.25;;;16.02;100.00
66164;BME280;52962;51.088;3.096;2022-09-17T09:41:26;101629.13;;;15.80;100.00
66164;BME280;52962;51.088;3.096;2022-09-17T09:44:01;101643.09;;;15.64;100.00
66164;BME280;52962;51.088;3.096;2022-09-17T09:49:33;101634.38;;;15.76;100.00
66164;BME280;52962;51.088;3.096;2022-09-17T09:52:12;101637.31;;;16.00;100.00
66164;BME280;52962;51.088;3.096;2022-09-17T09:54:58;101641.06;;;16.20;100.00
66164;BME280;52962;51.088;3.096;2022-09-17T09:57:34;101637.44;;;16.11;100.00
66164;BME280;52962;51.088;3.096;2022-09-17T10:00:26;101631.63;;;16.54;100.00
66164;BME280;52962;51.088;3.096;2022-09-17T10:02:58;101613.06;;;16.59;100.00
66164;BME280;52962;51.088;3.096;2022-09-17T10:05:30;101626.13;;;16.31;100.00
66164;BME280;52962;51.088;3.096;2022-09-17T10:07:58;101628.72;;;16.25;100.00
66164;BME280;52962;51.088;3.096;2022-09-17T10:10:26;101630.56;;;16.32;100.00
66164;BME280;52962;51.088;3.096;2022-09-17T10:13:04;101618.47;;;16.71;100.00
66164;BME280;52962;51.088;3.096;2022-09-17T10:15:34;101617.94;;;17.25;100.00
66164;BME280;52962;51.088;3.096;2022-09-17T10:18:14;101620.81;;;17.74;100.00
66164;BME280;52962;51.088;3.096;2022-09-17T10:20:53;101608.47;;;18.02;100.00
66164;BME280;52962;51.088;3.096;2022-09-17T10:23:23;101615.47;;;17.70;100.00
66164;BME280;52962;51.088;3.096;2022-09-17T10:25:52;101608.19;;;17.23;100.00
66164;BME280;52962;51.088;3.096;2022-09-17T10:28:31;101613.41;;;17.05;100.00
66164;BME280;52962;51.088;3.096;2022-09-17T10:31:02;101620.56;;;17.16;100.00
66164;BME280;52962;51.088;3.096;2022-09-17T10:33:35;101609.00;;;17.14;100.00
66164;BME280;52962;51.088;3.096;2022-09-17T10:36:07;101612.63;;;17.25;100.00
66164;BME280;52962;51.088;3.096;2022-09-17T10:38:37;101611.69;;;17.17;100.00
66164;BME280;52962;51.088;3.096;2022-09-17T10:41:17;101617.09;;;17.34;100.00
66164;BME280;52962;51.088;3.096;2022-09-17T10:43:47;101613.50;;;17.21;100.00
66164;BME280;52962;51.088;3.096;2022-09-17T10:46:18;101617.94;;;17.21;100.00
66164;BME280;52962;51.088;3.096;2022-09-17T10:48:58;101625.03;;;17.20;100.00
66164;BME280;52962;51.088;3.096;2022-09-17T10:51:35;101620.66;;;17.35;100.00
66164;BME280;52962;51.088;3.096;2022-09-17T10:54:13;101620.47;;;17.03;100.00
66164;BME280;52962;51.088;3.096;2022-09-17T10:56:50;101616.19;;;17.30;100.00
66164;BME280;52962;51.088;3.096;2022-09-17T10:59:37;101614.31;;;17.10;100.00
66164;BME280;52962;51.088;3.096;2022-09-17T11:02:35;101623.38;;;17.47;100.00
66164;BME280;52962;51.088;3.096;2022-09-17T11:05:25;101615.50;;;17.73;100.00
66164;BME280;52962;51.088;3.096;2022-09-17T11:08:00;101617.34;;;17.92;100.00
66164;BME280;52962;51.088;3.096;2022-09-17T11:10:36;101609.28;;;17.72;100.00
66164;BME280;52962;51.088;3.096;2022-09-17T11:13:14;101613.69;;;17.62;100.00
66164;BME280;52962;51.088;3.096;2022-09-17T11:16:01;101608.44;;;17.93;100.00
66164;BME280;52962;51.088;3.096;2022-09-17T11:18:36;101606.66;;;17.86;100.00
66164;BME280;52962;51.088;3.096;2022-09-17T11:21:35;101608.31;;;17.50;100.00
66164;BME280;52962;51.088;3.096;2022-09-17T11:24:19;101602.06;;;17.45;100.00
66164;BME280;52962;51.088;3.096;2022-09-17T11:26:58;101610.97;;;17.47;100.00
66164;BME280;52962;51.088;3.096;2022-09-17T11:29:54;101610.91;;;17.37;100.00
66164;BME280;52962;51.088;3.096;2022-09-17T11:32:41;101617.19;;;17.52;100.00
66164;BME280;52962;51.088;3.096;2022-09-17T11:35:13;101614.53;;;17.49;100.00
66164;BME280;52962;51.088;3.096;2022-09-17T11:37:45;101605.69;;;17.59;100.00
66164;BME280;52962;51.088;3.096;2022-09-17T11:40:21;101603.00;;;17.59;100.00
66164;BME280;52962;51.088;3.096;2022-09-17T11:42:54;101601.28;;;17.72;100.00
66164;BME280;52962;51.088;3.096;2022-09-17T11:45:25;101610.19;;;17.79;100.00
66164;BME280;52962;51.088;3.096;2022-09-17T11:47:58;101609.22;;;17.60;100.00
66164;BME280;52962;51.088;3.096;2022-09-17T11:50:29;101600.38;;;17.62;100.00
66164;BME280;52962;51.088;3.096;2022-09-17T11:53:03;101612.84;;;17.73;100.00
66164;BME280;52962;51.088;3.096;2022-09-17T11:55:39;101604.91;;;18.00;100.00
66164;BME280;52962;51.088;3.096;2022-09-17T11:58:13;101606.75;;;18.41;100.00
66164;BME280;52962;51.088;3.096;2022-09-17T12:00:47;101600.50;;;18.33;100.00
66164;BME280;52962;51.088;3.096;2022-09-17T12:03:22;101606.66;;;17.83;100.00
66164;BME280;52962;51.088;3.096;2022-09-17T12:05:56;101622.59;;;17.74;100.00
66164;BME280;52962;51.088;3.096;2022-09-17T12:08:33;101626.06;;;17.48;100.00
66164;BME280;52962;51.088;3.096;2022-09-17T12:11:09;101621.50;;;17.26;100.00
66164;BME280;52962;51.088;3.096;2022-09-17T12:13:41;101643.31;;;16.73;100.00
66164;BME280;52962;51.088;3.096;2022-09-17T12:16:16;101636.56;;;16.13;100.00
66164;BME280;52962;51.088;3.096;2022-09-17T12:18:56;101660.16;;;15.86;100.00
66164;BME280;52962;51.088;3.096;2022-09-17T12:21:30;101663.28;;;15.51;100.00
66164;BME280;52962;51.088;3.096;2022-09-17T12:24:08;101664.59;;;15.19;100.00
66164;BME280;52962;51.088;3.096;2022-09-17T12:26:54;101673.22;;;15.05;100.00
66164;BME280;52962;51.088;3.096;2022-09-17T12:29:35;101667.84;;;14.99;100.00
66164;BME280;52962;51.088;3.096;2022-09-17T12:32:23;101668.75;;;15.01;100.00
66164;BME280;52962;51.088;3.096;2022-09-17T12:35:02;101660.78;;;15.01;100.00
66164;BME280;52962;51.088;3.096;2022-09-17T12:37:39;101659.91;;;15.02;100.00
66164;BME280;52962;51.088;3.096;2022-09-17T12:40:17;101655.50;;;15.01;100.00
66164;BME280;52962;51.088;3.096;2022-09-17T12:42:57;101642.97;;;14.93;100.00
66164;BME280;52962;51.088;3.096;2022-09-17T12:45:44;101646.53;;;14.93;100.00
66164;BME280;52962;51.088;3.096;2022-09-17T12:48:44;101652.81;;;15.00;100.00
66164;BME280;52962;51.088;3.096;2022-09-17T12:51:24;101665.50;;;14.15;100.00
66164;BME280;52962;51.088;3.096;2022-09-17T12:54:02;101662.50;;;13.16;100.00
66164;BME280;52962;51.088;3.096;2022-09-17T12:56:45;101656.50;;;13.21;100.00
66164;BME280;52962;51.088;3.096;2022-09-17T12:59:18;101652.88;;;13.16;100.00
66164;BME280;52962;51.088;3.096;2022-09-17T13:01:50;101655.44;;;13.15;100.00
66164;BME280;52962;51.088;3.096;2022-09-17T13:07:46;101651.69;;;13.05;100.00
66164;BME280;52962;51.088;3.096;2022-09-17T13:10:34;101643.50;;;12.94;100.00
66164;BME280;52962;51.088;3.096;2022-09-17T13:13:22;101646.47;;;13.08;100.00
66164;BME280;52962;51.088;3.096;2022-09-17T13:16:03;101661.13;;;13.30;100.00